Kansas City, MO (64101)

8:21 PM CST on February 11, 2016 (GMT -0600)
Midtown Hospital Hill | | Change Station
CLOSE
Current Station
Personal Weather Station
Location: Kansas City, MO
Elevation: 984 ft
Nearby Weather Stations

Elev 984 ft 39.08 °N, 94.58 °W | Updated 13 minutes ago

Overcast
Overcast
34.3 °F
Feels Like 34 °F
N
2.2
Wind Variable Wind from South

Today
High -- | Low -- °F
--% Chance of Precip.
Yesterday
High -- | Low -- °F
Precip. -- in
Pressure 30.25 in
Visibility 10.0 miles
Clouds Mostly Cloudy 10000 ft
Overcast 12000 ft
Windchill 34 °F
Dew Point 23 °F
Humidity 62%
Rainfall 0.00 in
Snow Depth Not available.
7:15 AM 5:50 PM
Waxing Crescent, 16% visible
METAR KMKC 120154Z AUTO 08004KT 10SM BKN100 OVC120 02/M06 A3022 RMK AO2 SLP241 T00221061
Pressure 30.25 in
Visibility 10.0 miles
Clouds Mostly Cloudy 10000 ft
Overcast 12000 ft
Windchill 34 °F
Dew Point 23 °F
Humidity 62%
Rainfall 0.00 in
Snow Depth Not available.
7:15 AM 5:50 PM
Waxing Crescent, 16% visible
METAR KMKC 120154Z AUTO 08004KT 10SM BKN100 OVC120 02/M06 A3022 RMK AO2 SLP241 T00221061

10-Day Weather Forecast

Almanac

Astronomy

Feb. 11, 2016 Rise Set
Actual Time
Civil Twilight
Nautical Twilight
Astronomical Twilight
Moon
Length of Visible Light
Length of Day
Tomorrow will be .
, % of the Moon is Illuminated

Today's Extremes

State Highs State Lows

Community

WunderPhotos

Upload Photos

1,892,226 photos uploaded!

WunderBlog® & News

Nearby

Air Quality

  Air Quality AQ Index Pollutant
Not available.

Snow Depth

Station Depth Elevation

Earthquake Activity

City Distance Mag. Time & Date
Minimum magnitude displayed is 2.5.

Coastal Water Temperatures

Place Temperature

Stations

Nearby Weather Stations

Station Location Temp. Windchill Dew Point Humidity Wind Precip. Elev Updated Type
                   

Watches & Warnings

There are currently no watches in effect.